Time;durP1;ratioP1;P1;durP2;ratioP2;P2;SDS_P1;SDS_P2;PMS_P1;PMS_P2;Temp;Humidity;BMP_temperature;BMP_pressure;BME280_temperature;BME280_humidity;BME280_pressure;Samples;Min_cycle;Max_cycle;Signal;HPM_P1;HPM_P2
2021/06/24 00:02:21;;;;;;;5.05;4.15;;;;;;;;;;5063531;28;20039;-76
2021/06/24 00:05:06;;;;;;;5.07;4.10;;;;;;;;;;5049100;28;20141;-75
2021/06/24 00:07:51;;;;;;;5.22;4.32;;;;;;;;;;5042079;28;20795;-75
2021/06/24 00:10:36;;;;;;;4.80;4.18;;;;;;;;;;5044872;28;20039;-76
2021/06/24 00:13:21;;;;;;;4.75;3.88;;;;;;;;;;5044989;28;20399;-74
2021/06/24 00:16:06;;;;;;;4.82;4.32;;;;;;;;;;5062554;28;20035;-74
2021/06/24 00:18:51;;;;;;;5.28;4.65;;;;;;;;;;5063029;28;20132;-75
2021/06/24 00:21:36;;;;;;;4.85;4.07;;;;;;;;;;5065617;28;20067;-74
2021/06/24 00:24:21;;;;;;;4.38;3.83;;;;;;;;;;5069462;28;20038;-75
2021/06/24 00:27:05;;;;;;;5.50;4.47;;;;;;;;;;5079724;28;20047;-75
2021/06/24 00:29:50;;;;;;;5.22;4.40;;;;;;;;;;5050862;28;20182;-74
2021/06/24 00:32:34;;;;;;;5.78;4.43;;;;;;;;;;5050961;28;20050;-75
2021/06/24 00:35:19;;;;;;;5.28;4.30;;;;;;;;;;5071935;28;20081;-75
2021/06/24 00:38:04;;;;;;;5.85;4.13;;;;;;;;;;5069349;28;20047;-75
2021/06/24 00:40:49;;;;;;;4.97;4.40;;;;;;;;;;5054045;28;20075;-74
2021/06/24 00:43:34;;;;;;;4.30;3.90;;;;;;;;;;5066543;28;20038;-75
2021/06/24 00:46:19;;;;;;;5.35;4.15;;;;;;;;;;5059957;28;20623;-75
2021/06/24 00:49:03;;;;;;;7.25;4.63;;;;;;;;;;5063856;28;20125;-75
2021/06/24 00:51:48;;;;;;;6.72;4.68;;;;;;;;;;5061644;28;20170;-75
2021/06/24 00:54:33;;;;;;;6.88;4.43;;;;;;;;;;5062758;28;20044;-75
2021/06/24 00:57:18;;;;;;;6.25;4.95;;;;;;;;;;5042452;28;20032;-74
2021/06/24 01:00:04;;;;;;;7.10;4.57;;;;;;;;;;5055942;28;20119;-74
2021/06/24 01:02:48;;;;;;;5.78;4.32;;;;;;;;;;5060070;28;20047;-77
2021/06/24 01:05:33;;;;;;;7.20;4.93;;;;;;;;;;5063955;28;20043;-75
2021/06/24 01:08:22;;;;;;;7.10;5.00;;;;;;;;;;5070872;28;20079;-74
2021/06/24 01:11:07;;;;;;;5.90;5.10;;;;;;;;;;5068344;28;20040;-75
2021/06/24 01:13:52;;;;;;;6.72;4.88;;;;;;;;;;5062197;28;20047;-75
2021/06/24 01:16:36;;;;;;;5.95;5.00;;;;;;;;;;5055675;28;20332;-74
2021/06/24 01:19:21;;;;;;;5.55;4.60;;;;;;;;;;5044490;28;20040;-74
2021/06/24 01:22:06;;;;;;;9.73;4.85;;;;;;;;;;5076049;28;20541;-75
2021/06/24 01:24:50;;;;;;;7.43;5.07;;;;;;;;;;5075937;28;20511;-76
2021/06/24 01:27:35;;;;;;;6.18;4.90;;;;;;;;;;5076965;28;20081;-75
2021/06/24 01:30:20;;;;;;;9.15;5.30;;;;;;;;;;5049885;28;20556;-75
2021/06/24 01:33:05;;;;;;;7.55;5.40;;;;;;;;;;5074852;28;20039;-76
2021/06/24 01:35:49;;;;;;;6.93;5.40;;;;;;;;;;5064719;28;20043;-75
2021/06/24 01:38:34;;;;;;;6.35;5.47;;;;;;;;;;5047957;28;20039;-74
2021/06/24 01:41:19;;;;;;;7.85;5.47;;;;;;;;;;5069500;28;20756;-75
2021/06/24 01:44:03;;;;;;;7.07;5.30;;;;;;;;;;5067471;28;20047;-75
2021/06/24 01:46:48;;;;;;;7.15;5.57;;;;;;;;;;5058796;28;20038;-74
2021/06/24 01:49:33;;;;;;;7.63;5.90;;;;;;;;;;5087769;28;20189;-74
2021/06/24 01:52:17;;;;;;;7.43;5.55;;;;;;;;;;5059681;28;20101;-74
2021/06/24 01:55:02;;;;;;;6.32;5.70;;;;;;;;;;5081191;28;20047;-74
2021/06/24 01:57:46;;;;;;;10.30;6.15;;;;;;;;;;5039946;28;20140;-74
2021/06/24 02:00:31;;;;;;;8.00;5.32;;;;;;;;;;5071404;28;20157;-74
2021/06/24 02:03:16;;;;;;;7.93;5.93;;;;;;;;;;5069839;28;20040;-74
2021/06/24 02:06:00;;;;;;;9.65;5.47;;;;;;;;;;5076215;28;20043;-74
2021/06/24 02:08:45;;;;;;;6.93;5.80;;;;;;;;;;5054526;28;20411;-74
2021/06/24 02:11:29;;;;;;;8.15;5.70;;;;;;;;;;5080180;28;20035;-74
2021/06/24 02:14:14;;;;;;;8.85;5.65;;;;;;;;;;5081070;28;20039;-74
2021/06/24 02:16:58;;;;;;;8.18;6.38;;;;;;;;;;5074459;28;20071;-74
2021/06/24 02:19:45;;;;;;;7.68;6.18;;;;;;;;;;5087519;28;20039;-74
2021/06/24 02:22:29;;;;;;;6.80;5.65;;;;;;;;;;5082804;28;20039;-74
2021/06/24 02:25:14;;;;;;;9.70;6.70;;;;;;;;;;5054440;28;20738;-74
2021/06/24 02:27:59;;;;;;;8.18;6.38;;;;;;;;;;5079685;28;20105;-73
2021/06/24 02:30:44;;;;;;;7.57;5.63;;;;;;;;;;5077123;28;20398;-74
2021/06/24 02:33:28;;;;;;;7.93;6.47;;;;;;;;;;5085616;28;20119;-74
2021/06/24 02:36:13;;;;;;;9.25;5.88;;;;;;;;;;5065653;28;20093;-75
2021/06/24 02:38:57;;;;;;;9.48;6.35;;;;;;;;;;5077775;28;20047;-74
2021/06/24 02:41:42;;;;;;;9.80;6.03;;;;;;;;;;5056632;28;20393;-75
2021/06/24 02:44:26;;;;;;;9.88;6.57;;;;;;;;;;5055958;28;20105;-74
2021/06/24 02:47:11;;;;;;;9.77;5.88;;;;;;;;;;5072822;28;20040;-75
2021/06/24 02:49:56;;;;;;;8.20;6.18;;;;;;;;;;5068593;28;20162;-74
2021/06/24 02:52:41;;;;;;;9.02;6.10;;;;;;;;;;5050577;28;20072;-75
2021/06/24 02:55:30;;;;;;;7.85;6.20;;;;;;;;;;5060634;28;20094;-74
2021/06/24 02:58:15;;;;;;;7.65;6.05;;;;;;;;;;5082347;28;20038;-74
2021/06/24 03:00:59;;;;;;;8.32;6.22;;;;;;;;;;5075430;28;20040;-74
2021/06/24 03:03:44;;;;;;;8.98;6.85;;;;;;;;;;5081161;28;20042;-74
2021/06/24 03:06:29;;;;;;;7.72;6.35;;;;;;;;;;5062498;28;20059;-74
2021/06/24 03:09:13;;;;;;;8.43;6.13;;;;;;;;;;5052309;28;20048;-75
2021/06/24 03:11:58;;;;;;;8.55;6.50;;;;;;;;;;5071351;28;20042;-74
2021/06/24 03:14:42;;;;;;;9.73;6.57;;;;;;;;;;5068601;28;20170;-74
2021/06/24 03:17:27;;;;;;;9.57;6.95;;;;;;;;;;5070979;28;20526;-74
2021/06/24 03:20:12;;;;;;;9.38;6.57;;;;;;;;;;5065211;28;20040;-74
2021/06/24 03:22:58;;;;;;;10.88;6.53;;;;;;;;;;5056776;28;20142;-74
2021/06/24 03:25:43;;;;;;;8.30;6.10;;;;;;;;;;5068583;28;20039;-74
2021/06/24 03:28:28;;;;;;;10.60;7.15;;;;;;;;;;5067174;28;20052;-74
2021/06/24 03:31:12;;;;;;;11.35;6.95;;;;;;;;;;5067253;28;20067;-74
2021/06/24 03:33:58;;;;;;;8.55;6.70;;;;;;;;;;5072607;28;20044;-74
2021/06/24 03:36:42;;;;;;;8.77;6.15;;;;;;;;;;5078112;28;20052;-74
2021/06/24 03:39:27;;;;;;;10.45;7.40;;;;;;;;;;5052155;28;20051;-74
2021/06/24 03:42:11;;;;;;;8.82;7.55;;;;;;;;;;5068743;28;20079;-74
2021/06/24 03:44:56;;;;;;;10.45;7.50;;;;;;;;;;5070608;28;20115;-74
2021/06/24 03:47:41;;;;;;;9.40;7.00;;;;;;;;;;5065786;28;20043;-74
2021/06/24 03:50:26;;;;;;;11.50;7.68;;;;;;;;;;5052120;28;20232;-74
2021/06/24 03:53:11;;;;;;;9.40;7.20;;;;;;;;;;5081722;28;20043;-74
2021/06/24 03:55:55;;;;;;;11.20;8.43;;;;;;;;;;5080606;28;20070;-74
2021/06/24 03:58:40;;;;;;;10.52;8.23;;;;;;;;;;5069496;28;20035;-74
2021/06/24 04:01:25;;;;;;;11.52;7.90;;;;;;;;;;5066147;28;20093;-74
2021/06/24 04:04:13;;;;;;;10.48;7.72;;;;;;;;;;5065293;28;20094;-74
2021/06/24 04:06:57;;;;;;;12.30;8.45;;;;;;;;;;5065932;28;20071;-74
2021/06/24 04:09:42;;;;;;;11.13;8.10;;;;;;;;;;5077571;28;20063;-74
2021/06/24 04:12:26;;;;;;;11.00;8.60;;;;;;;;;;5063870;28;20084;-74
2021/06/24 04:15:11;;;;;;;11.68;8.68;;;;;;;;;;5058224;28;20121;-74
2021/06/24 04:17:56;;;;;;;10.98;8.32;;;;;;;;;;5068448;28;20031;-75
2021/06/24 04:20:41;;;;;;;12.52;9.10;;;;;;;;;;5031866;28;20036;-74
2021/06/24 04:23:26;;;;;;;10.25;8.70;;;;;;;;;;5059372;28;20035;-74
2021/06/24 04:26:10;;;;;;;15.25;9.88;;;;;;;;;;5051694;28;20039;-74
2021/06/24 04:28:55;;;;;;;12.80;8.98;;;;;;;;;;5075393;28;20047;-74
2021/06/24 04:31:39;;;;;;;11.18;9.07;;;;;;;;;;5075246;28;20038;-74
2021/06/24 04:34:24;;;;;;;12.52;9.18;;;;;;;;;;5070785;28;20176;-74
2021/06/24 04:37:09;;;;;;;14.18;10.23;;;;;;;;;;5066492;28;20048;-74
2021/06/24 04:39:53;;;;;;;11.98;9.75;;;;;;;;;;5067216;28;20039;-74
2021/06/24 04:42:38;;;;;;;16.00;10.05;;;;;;;;;;5064511;28;20411;-74
2021/06/24 04:45:22;;;;;;;13.18;9.95;;;;;;;;;;5067750;28;20041;-74
2021/06/24 04:48:07;;;;;;;12.98;9.48;;;;;;;;;;5065124;28;20268;-75
2021/06/24 04:50:52;;;;;;;14.48;10.07;;;;;;;;;;5050638;28;20043;-75
2021/06/24 04:53:36;;;;;;;13.60;10.15;;;;;;;;;;5080652;28;20097;-75
2021/06/24 04:56:21;;;;;;;13.00;10.07;;;;;;;;;;5062347;28;20039;-75
2021/06/24 04:59:06;;;;;;;13.00;10.32;;;;;;;;;;5054534;28;20039;-75
2021/06/24 05:01:51;;;;;;;15.75;10.63;;;;;;;;;;5063900;28;20047;-77
2021/06/24 05:04:35;;;;;;;15.98;10.93;;;;;;;;;;5078416;28;20591;-75
2021/06/24 05:07:20;;;;;;;16.23;11.20;;;;;;;;;;5060151;28;20489;-75
2021/06/24 05:10:05;;;;;;;14.57;11.30;;;;;;;;;;5058007;28;20428;-75
2021/06/24 05:12:50;;;;;;;15.15;10.82;;;;;;;;;;5052971;28;20473;-75
2021/06/24 05:15:35;;;;;;;14.50;11.15;;;;;;;;;;5061966;28;20534;-75
2021/06/24 05:18:20;;;;;;;15.07;10.85;;;;;;;;;;5057353;28;20164;-75
2021/06/24 05:21:05;;;;;;;15.10;11.07;;;;;;;;;;5081293;28;20036;-75
2021/06/24 05:23:50;;;;;;;15.18;11.05;;;;;;;;;;5061319;28;20406;-75
2021/06/24 05:26:34;;;;;;;13.25;11.02;;;;;;;;;;5062640;28;20044;-75
2021/06/24 05:29:19;;;;;;;14.45;11.40;;;;;;;;;;5066870;28;20147;-75
2021/06/24 05:32:04;;;;;;;15.80;11.65;;;;;;;;;;5060706;28;20089;-79
2021/06/24 05:34:49;;;;;;;14.95;11.68;;;;;;;;;;5047906;28;20086;-75
2021/06/24 05:37:34;;;;;;;15.32;11.95;;;;;;;;;;5061408;28;20116;-75
2021/06/24 05:40:18;;;;;;;13.82;10.95;;;;;;;;;;5053647;28;20052;-75
2021/06/24 05:43:03;;;;;;;16.63;12.32;;;;;;;;;;5063419;28;20048;-75
2021/06/24 05:45:48;;;;;;;14.65;11.75;;;;;;;;;;5062865;28;20050;-75
2021/06/24 05:48:32;;;;;;;16.48;11.70;;;;;;;;;;5064639;28;20600;-75
2021/06/24 05:51:18;;;;;;;17.70;12.32;;;;;;;;;;5057514;28;20044;-75
2021/06/24 05:54:02;;;;;;;16.05;12.43;;;;;;;;;;5050947;28;20047;-75
2021/06/24 05:56:47;;;;;;;17.80;11.80;;;;;;;;;;5055727;28;20040;-75
2021/06/24 05:59:31;;;;;;;16.55;11.43;;;;;;;;;;5068114;28;20166;-75
2021/06/24 06:02:16;;;;;;;16.58;12.20;;;;;;;;;;5068649;28;20047;-75
2021/06/24 06:05:00;;;;;;;17.73;12.35;;;;;;;;;;5057462;28;20190;-75
2021/06/24 06:07:45;;;;;;;17.25;12.40;;;;;;;;;;5055221;28;20407;-75
2021/06/24 06:10:30;;;;;;;16.73;11.63;;;;;;;;;;5078547;28;20054;-75
2021/06/24 06:13:14;;;;;;;18.13;11.85;;;;;;;;;;5061603;28;20038;-75
2021/06/24 06:15:59;;;;;;;14.43;11.55;;;;;;;;;;5053990;28;20116;-75
2021/06/24 06:18:43;;;;;;;17.95;11.90;;;;;;;;;;5058191;28;20406;-74
2021/06/24 06:21:29;;;;;;;14.77;11.70;;;;;;;;;;5070179;28;20093;-75
2021/06/24 06:24:14;;;;;;;15.82;11.32;;;;;;;;;;5081850;28;20406;-75
2021/06/24 06:26:59;;;;;;;15.20;11.57;;;;;;;;;;5069449;28;20050;-75
2021/06/24 06:29:43;;;;;;;15.48;11.05;;;;;;;;;;5068911;28;20503;-76
2021/06/24 06:32:27;;;;;;;14.45;11.30;;;;;;;;;;5052283;28;20044;-75
2021/06/24 06:35:12;;;;;;;17.08;12.27;;;;;;;;;;5068322;28;20090;-75
2021/06/24 06:37:57;;;;;;;19.58;11.82;;;;;;;;;;5050606;28;20061;-75
2021/06/24 06:40:42;;;;;;;16.05;11.40;;;;;;;;;;5080751;28;20085;-75
2021/06/24 06:43:27;;;;;;;16.38;12.25;;;;;;;;;;5065873;28;20100;-75
2021/06/24 06:46:12;;;;;;;16.60;12.25;;;;;;;;;;5073603;28;20064;-75
2021/06/24 06:48:56;;;;;;;14.45;11.60;;;;;;;;;;5064756;28;20098;-75
2021/06/24 06:51:41;;;;;;;16.08;11.77;;;;;;;;;;5060005;28;20528;-75
2021/06/24 06:54:25;;;;;;;16.15;11.27;;;;;;;;;;5050991;28;20162;-75
2021/06/24 06:57:10;;;;;;;17.88;11.55;;;;;;;;;;5066182;28;20047;-74
2021/06/24 06:59:54;;;;;;;16.90;11.35;;;;;;;;;;5068149;28;20046;-75
2021/06/24 07:02:39;;;;;;;14.05;11.30;;;;;;;;;;5065996;28;20044;-75
2021/06/24 07:05:24;;;;;;;17.48;11.05;;;;;;;;;;5069335;28;20565;-75
2021/06/24 07:08:09;;;;;;;14.32;10.98;;;;;;;;;;5072868;28;20070;-77
2021/06/24 07:10:54;;;;;;;14.52;10.73;;;;;;;;;;5075230;28;20451;-75
2021/06/24 07:13:38;;;;;;;13.40;11.05;;;;;;;;;;5060257;28;20536;-75
2021/06/24 07:16:25;;;;;;;13.25;10.35;;;;;;;;;;5065190;28;20166;-75
2021/06/24 07:19:09;;;;;;;13.32;9.90;;;;;;;;;;5082300;28;20105;-75
2021/06/24 07:21:54;;;;;;;12.93;9.88;;;;;;;;;;5067454;28;20147;-76
2021/06/24 07:24:38;;;;;;;13.40;10.25;;;;;;;;;;5065754;28;20085;-75
2021/06/24 07:27:23;;;;;;;13.13;9.57;;;;;;;;;;5083018;28;20030;-75
2021/06/24 07:30:08;;;;;;;11.98;9.52;;;;;;;;;;5061385;28;20113;-75
2021/06/24 07:32:52;;;;;;;12.48;9.45;;;;;;;;;;5047767;28;20128;-75
2021/06/24 07:35:37;;;;;;;12.63;8.95;;;;;;;;;;5052597;28;20047;-75
2021/06/24 07:38:21;;;;;;;11.80;9.25;;;;;;;;;;5065489;28;20383;-77
2021/06/24 07:41:06;;;;;;;12.18;9.23;;;;;;;;;;5054737;28;20407;-74
2021/06/24 07:43:52;;;;;;;12.55;8.80;;;;;;;;;;5077262;28;20151;-75
2021/06/24 07:46:37;;;;;;;12.38;9.50;;;;;;;;;;5065849;28;20132;-75
2021/06/24 07:49:23;;;;;;;11.77;8.63;;;;;;;;;;5067818;28;20304;-75
2021/06/24 07:52:07;;;;;;;10.88;8.32;;;;;;;;;;5051608;28;20131;-75
2021/06/24 07:54:51;;;;;;;11.10;8.27;;;;;;;;;;5065681;28;20043;-75
2021/06/24 07:57:36;;;;;;;9.75;8.18;;;;;;;;;;5046609;28;20083;-75
2021/06/24 08:00:20;;;;;;;9.68;8.30;;;;;;;;;;5049414;28;20624;-75
2021/06/24 08:03:06;;;;;;;11.73;8.50;;;;;;;;;;5066685;28;20103;-75
2021/06/24 08:05:51;;;;;;;10.73;7.90;;;;;;;;;;5049494;28;20039;-75
2021/06/24 08:08:36;;;;;;;10.20;8.05;;;;;;;;;;5063522;28;20067;-75
2021/06/24 08:11:20;;;;;;;9.75;7.63;;;;;;;;;;5065756;28;20071;-75
2021/06/24 08:14:05;;;;;;;9.48;7.63;;;;;;;;;;5048324;28;20043;-75
2021/06/24 08:16:50;;;;;;;9.95;7.07;;;;;;;;;;5068348;28;20054;-75
2021/06/24 08:19:34;;;;;;;8.25;6.68;;;;;;;;;;5062933;28;20039;-75
2021/06/24 08:22:19;;;;;;;10.50;7.78;;;;;;;;;;5065469;28;20119;-76
2021/06/24 08:25:05;;;;;;;9.07;7.22;;;;;;;;;;5074501;28;20093;-75
2021/06/24 08:27:50;;;;;;;8.27;6.63;;;;;;;;;;5046675;28;20067;-75
2021/06/24 08:30:41;;;;;;;8.50;6.78;;;;;;;;;;5067423;28;20117;-75
2021/06/24 08:33:26;;;;;;;9.57;7.13;;;;;;;;;;5050492;28;20552;-77
2021/06/24 08:36:10;;;;;;;10.55;7.30;;;;;;;;;;5072210;28;20123;-75
2021/06/24 08:38:55;;;;;;;7.85;6.72;;;;;;;;;;5084211;28;20403;-75
2021/06/24 08:41:40;;;;;;;8.77;7.18;;;;;;;;;;5081216;28;20219;-75
2021/06/24 08:44:24;;;;;;;9.20;7.22;;;;;;;;;;5065468;28;20218;-75
2021/06/24 08:47:09;;;;;;;8.75;6.80;;;;;;;;;;5049086;28;20071;-75
2021/06/24 08:49:54;;;;;;;10.88;7.40;;;;;;;;;;5063387;28;20089;-75
2021/06/24 08:52:38;;;;;;;9.68;6.65;;;;;;;;;;5059229;28;20035;-75
2021/06/24 08:55:35;;;;;;;9.32;6.57;;;;;;;;;;5064221;28;20043;-75
2021/06/24 08:58:21;;;;;;;9.45;6.43;;;;;;;;;;5078202;28;20077;-74
2021/06/24 09:01:06;;;;;;;8.18;6.28;;;;;;;;;;5062903;28;20039;-75
2021/06/24 09:03:51;;;;;;;8.90;6.90;;;;;;;;;;5035552;28;20031;-75
2021/06/24 09:06:36;;;;;;;9.05;6.95;;;;;;;;;;5057173;28;20039;-74
2021/06/24 09:09:24;;;;;;;9.07;6.80;;;;;;;;;;5062446;28;20732;-75
2021/06/24 09:12:10;;;;;;;9.20;6.82;;;;;;;;;;5062095;28;20665;-75
2021/06/24 09:15:01;;;;;;;7.20;6.43;;;;;;;;;;5065896;28;20066;-76
2021/06/24 09:17:47;;;;;;;7.63;6.53;;;;;;;;;;5061971;28;20043;-75
2021/06/24 09:20:32;;;;;;;8.93;6.47;;;;;;;;;;5046495;28;20120;-75
2021/06/24 09:23:24;;;;;;;8.43;6.43;;;;;;;;;;5067771;28;20039;-75
2021/06/24 09:26:15;;;;;;;7.00;6.32;;;;;;;;;;5039042;28;20040;-76
2021/06/24 09:29:00;;;;;;;7.60;6.60;;;;;;;;;;5052809;28;20051;-74
2021/06/24 09:31:48;;;;;;;7.63;6.22;;;;;;;;;;5054296;28;20346;-75
2021/06/24 09:34:32;;;;;;;9.55;6.70;;;;;;;;;;5043127;28;20114;-74
2021/06/24 09:37:18;;;;;;;7.95;6.22;;;;;;;;;;5054208;28;20040;-74
2021/06/24 09:40:11;;;;;;;8.45;6.70;;;;;;;;;;5046949;28;20536;-75
2021/06/24 09:42:55;;;;;;;8.80;6.53;;;;;;;;;;5061748;28;20098;-75
2021/06/24 09:45:40;;;;;;;7.63;6.00;;;;;;;;;;5059154;28;20067;-75
2021/06/24 09:48:31;;;;;;;8.70;6.65;;;;;;;;;;5064356;28;20675;-74
2021/06/24 09:51:17;;;;;;;9.13;6.40;;;;;;;;;;5056678;28;20439;-75
2021/06/24 09:54:05;;;;;;;6.82;6.10;;;;;;;;;;5053750;28;20090;-75
2021/06/24 09:56:54;;;;;;;7.45;5.65;;;;;;;;;;5058858;28;20497;-76
2021/06/24 09:59:40;;;;;;;7.00;5.97;;;;;;;;;;5053140;28;20149;-75
2021/06/24 10:02:25;;;;;;;7.90;6.47;;;;;;;;;;5054482;28;20086;-75
2021/06/24 10:05:10;;;;;;;6.82;5.63;;;;;;;;;;5053791;28;20036;-75
2021/06/24 10:07:55;;;;;;;7.30;5.95;;;;;;;;;;5054737;28;20509;-75
2021/06/24 10:10:40;;;;;;;7.07;6.32;;;;;;;;;;5066692;28;20145;-75
2021/06/24 10:13:29;;;;;;;7.78;5.85;;;;;;;;;;5050363;28;20048;-75
2021/06/24 10:16:14;;;;;;;7.32;5.57;;;;;;;;;;5058005;28;20831;-76
2021/06/24 10:18:59;;;;;;;8.05;5.50;;;;;;;;;;5077044;28;20043;-76
2021/06/24 10:21:44;;;;;;;7.10;5.63;;;;;;;;;;5055473;28;20957;-75
2021/06/24 10:24:36;;;;;;;7.00;5.50;;;;;;;;;;5067701;28;20047;-76
2021/06/24 10:27:20;;;;;;;6.78;5.20;;;;;;;;;;5061282;28;20086;-76
2021/06/24 10:30:09;;;;;;;7.57;5.97;;;;;;;;;;5062175;28;20051;-77
2021/06/24 10:32:56;;;;;;;7.63;5.65;;;;;;;;;;5062147;28;20142;-77
2021/06/24 10:35:42;;;;;;;7.75;5.10;;;;;;;;;;5065239;28;20044;-77
2021/06/24 10:38:42;;;;;;;6.25;5.22;;;;;;;;;;5063550;28;20044;-77
2021/06/24 10:41:27;;;;;;;8.20;6.15;;;;;;;;;;5049579;28;20092;-77
2021/06/24 10:44:12;;;;;;;7.40;5.28;;;;;;;;;;5065111;28;20444;-77
2021/06/24 10:47:04;;;;;;;5.78;5.18;;;;;;;;;;5046479;28;20131;-77
2021/06/24 10:49:49;;;;;;;6.35;5.30;;;;;;;;;;5064446;28;20056;-76
2021/06/24 10:52:35;;;;;;;8.32;5.18;;;;;;;;;;5063008;28;20047;-77
2021/06/24 10:55:32;;;;;;;8.07;5.70;;;;;;;;;;5051029;28;20071;-77
2021/06/24 10:58:20;;;;;;;8.27;5.88;;;;;;;;;;5061282;28;20496;-76
2021/06/24 11:01:05;;;;;;;5.90;5.28;;;;;;;;;;5064919;28;20093;-76
2021/06/24 11:03:50;;;;;;;6.75;5.18;;;;;;;;;;5050749;28;20044;-78
2021/06/24 11:06:36;;;;;;;7.30;4.95;;;;;;;;;;5063706;28;20157;-77
2021/06/24 11:09:21;;;;;;;6.18;5.32;;;;;;;;;;5054336;28;20086;-76
2021/06/24 11:12:05;;;;;;;7.28;4.90;;;;;;;;;;5064724;28;20760;-78
2021/06/24 11:14:51;;;;;;;6.60;5.22;;;;;;;;;;5063693;28;20107;-76
2021/06/24 11:17:43;;;;;;;6.38;5.03;;;;;;;;;;5050053;28;20038;-77
2021/06/24 11:20:29;;;;;;;6.13;4.95;;;;;;;;;;5069342;28;20055;-76
2021/06/24 11:23:40;;;;;;;6.43;5.45;;;;;;;;;;5065661;28;20043;-77
2021/06/24 11:26:24;;;;;;;6.07;5.07;;;;;;;;;;5048771;28;20149;-76
2021/06/24 11:29:10;;;;;;;5.53;4.80;;;;;;;;;;5060463;28;20071;-76
2021/06/24 11:32:04;;;;;;;6.53;4.68;;;;;;;;;;5061852;28;20042;-76
2021/06/24 11:37:35;;;;;;;7.20;5.00;;;;;;;;;;5063610;28;20458;-78
2021/06/24 11:40:20;;;;;;;5.50;4.95;;;;;;;;;;5055587;28;20129;-78
2021/06/24 11:43:08;;;;;;;6.45;4.97;;;;;;;;;;5069686;28;20403;-77
2021/06/24 11:45:53;;;;;;;6.35;4.82;;;;;;;;;;5026554;28;20144;-78
2021/06/24 11:48:37;;;;;;;7.88;5.05;;;;;;;;;;5062579;28;20178;-78
2021/06/24 12:04:15;;;;;;;5.70;5.10;;;;;;;;;;4999603;28;20594;-76
2021/06/24 12:07:08;;;;;;;5.55;5.00;;;;;;;;;;4996897;28;20037;-77
2021/06/24 12:09:53;;;;;;;5.57;4.85;;;;;;;;;;5053143;28;20133;-77
2021/06/24 12:12:40;;;;;;;5.53;4.45;;;;;;;;;;5056553;28;20545;-76
2021/06/24 12:15:25;;;;;;;4.93;4.43;;;;;;;;;;5035252;28;20044;-76
2021/06/24 12:18:10;;;;;;;6.18;4.47;;;;;;;;;;5057634;28;20512;-76
2021/06/24 12:21:24;;;;;;;5.38;4.78;;;;;;;;;;5058707;28;20071;-76
2021/06/24 12:24:09;;;;;;;6.10;4.50;;;;;;;;;;5047976;28;20128;-77
2021/06/24 12:26:54;;;;;;;6.15;4.32;;;;;;;;;;5054327;28;20071;-78
2021/06/24 12:29:41;;;;;;;5.07;4.15;;;;;;;;;;5060269;28;20055;-77
2021/06/24 12:32:26;;;;;;;5.35;4.85;;;;;;;;;;5063142;28;20039;-78
2021/06/24 12:35:11;;;;;;;5.30;4.50;;;;;;;;;;5061336;28;20681;-78
2021/06/24 12:37:56;;;;;;;4.90;4.22;;;;;;;;;;5070127;28;20162;-77
2021/06/24 12:40:43;;;;;;;5.32;4.65;;;;;;;;;;5042894;28;20067;-78
2021/06/24 12:43:28;;;;;;;4.82;4.30;;;;;;;;;;5055204;28;20043;-77
2021/06/24 12:46:13;;;;;;;5.03;4.50;;;;;;;;;;5051725;28;20070;-77
2021/06/24 12:49:01;;;;;;;6.05;4.63;;;;;;;;;;5057616;28;20055;-80
2021/06/24 12:51:46;;;;;;;5.10;4.07;;;;;;;;;;5072939;28;20472;-78
2021/06/24 12:54:36;;;;;;;5.55;4.20;;;;;;;;;;5064785;28;20173;-77
2021/06/24 12:57:24;;;;;;;5.35;4.68;;;;;;;;;;5060630;28;20067;-77
2021/06/24 13:00:09;;;;;;;6.38;4.40;;;;;;;;;;5064833;28;20127;-78
2021/06/24 13:02:54;;;;;;;5.13;4.55;;;;;;;;;;5065208;28;20048;-77
2021/06/24 13:05:38;;;;;;;5.38;4.70;;;;;;;;;;5049259;28;20043;-78
2021/06/24 13:08:25;;;;;;;6.15;4.60;;;;;;;;;;5056728;28;20074;-78
2021/06/24 13:11:13;;;;;;;6.28;4.97;;;;;;;;;;5056926;28;20043;-78
2021/06/24 13:14:08;;;;;;;4.97;4.30;;;;;;;;;;5063341;28;20491;-79
2021/06/24 13:16:57;;;;;;;5.88;4.57;;;;;;;;;;5042280;28;20159;-79
2021/06/24 13:19:42;;;;;;;5.57;4.75;;;;;;;;;;5068700;28;20043;-78
2021/06/24 13:22:30;;;;;;;5.45;4.40;;;;;;;;;;5054841;28;20552;-78
2021/06/24 13:25:19;;;;;;;6.90;4.63;;;;;;;;;;5057790;28;20110;-78
2021/06/24 13:28:07;;;;;;;5.90;4.40;;;;;;;;;;5052727;28;20052;-79
2021/06/24 13:30:51;;;;;;;6.13;4.47;;;;;;;;;;5060794;28;20043;-79
2021/06/24 13:33:40;;;;;;;8.73;4.63;;;;;;;;;;5060081;28;20500;-78
2021/06/24 13:36:25;;;;;;;6.10;4.47;;;;;;;;;;5046214;28;20515;-78
2021/06/24 13:39:10;;;;;;;7.07;4.53;;;;;;;;;;5058611;28;20066;-77
2021/06/24 13:41:55;;;;;;;5.47;4.55;;;;;;;;;;5031830;28;20122;-77
2021/06/24 13:44:39;;;;;;;5.68;4.78;;;;;;;;;;5065888;28;20611;-77
2021/06/24 13:47:24;;;;;;;6.13;4.38;;;;;;;;;;5051591;28;20121;-77
2021/06/24 13:50:09;;;;;;;5.45;4.40;;;;;;;;;;5066361;28;20106;-76
2021/06/24 13:52:54;;;;;;;6.07;4.50;;;;;;;;;;5065763;28;20035;-77
2021/06/24 13:55:38;;;;;;;5.40;4.47;;;;;;;;;;5045628;28;20059;-77
2021/06/24 13:58:24;;;;;;;6.22;4.30;;;;;;;;;;5058327;28;20524;-77
2021/06/24 14:01:08;;;;;;;5.80;4.20;;;;;;;;;;5044459;28;20040;-77
2021/06/24 14:03:53;;;;;;;5.40;4.35;;;;;;;;;;5062850;28;20110;-77
2021/06/24 14:06:38;;;;;;;5.75;4.10;;;;;;;;;;5047404;28;20063;-77
2021/06/24 14:09:23;;;;;;;5.13;4.18;;;;;;;;;;5031894;28;20190;-77
2021/06/24 14:12:07;;;;;;;6.25;4.35;;;;;;;;;;5060380;28;20035;-77
2021/06/24 14:14:52;;;;;;;4.35;3.72;;;;;;;;;;5064786;28;20054;-77
2021/06/24 14:17:37;;;;;;;4.95;4.30;;;;;;;;;;5063737;28;20053;-77
2021/06/24 14:20:22;;;;;;;5.28;4.10;;;;;;;;;;5066263;28;20043;-77
2021/06/24 14:23:06;;;;;;;6.60;4.10;;;;;;;;;;5063550;28;20039;-79
2021/06/24 14:25:50;;;;;;;5.50;4.20;;;;;;;;;;5060067;28;20127;-77
2021/06/24 14:28:35;;;;;;;4.88;3.90;;;;;;;;;;5064628;28;20628;-77
2021/06/24 14:31:21;;;;;;;5.65;4.25;;;;;;;;;;5064475;28;20036;-78
2021/06/24 14:34:05;;;;;;;4.93;3.63;;;;;;;;;;5065701;28;20052;-78
2021/06/24 14:36:50;;;;;;;6.18;4.30;;;;;;;;;;5064413;28;20759;-78
2021/06/24 14:39:34;;;;;;;7.20;4.10;;;;;;;;;;5066108;28;20889;-77
2021/06/24 14:42:19;;;;;;;5.22;4.03;;;;;;;;;;5064487;28;20043;-77
2021/06/24 14:45:04;;;;;;;4.68;3.88;;;;;;;;;;5064797;28;20047;-78
2021/06/24 14:47:48;;;;;;;5.93;4.20;;;;;;;;;;5063786;28;20071;-78
2021/06/24 14:50:33;;;;;;;4.97;4.22;;;;;;;;;;5063683;28;20051;-77
2021/06/24 14:53:18;;;;;;;5.35;4.25;;;;;;;;;;5064444;28;20319;-77
2021/06/24 14:56:03;;;;;;;6.53;4.07;;;;;;;;;;5061137;28;20047;-78
2021/06/24 14:58:48;;;;;;;4.85;4.00;;;;;;;;;;5050611;28;20562;-78
2021/06/24 15:01:33;;;;;;;4.30;3.78;;;;;;;;;;5062317;28;20050;-77
2021/06/24 15:04:18;;;;;;;4.75;3.95;;;;;;;;;;5051682;28;20085;-77
2021/06/24 15:07:03;;;;;;;6.38;4.40;;;;;;;;;;5049831;28;20113;-78
2021/06/24 15:09:48;;;;;;;5.63;4.03;;;;;;;;;;5061867;28;20099;-78
2021/06/24 15:12:32;;;;;;;6.55;4.28;;;;;;;;;;5063392;28;20047;-77
2021/06/24 15:15:17;;;;;;;5.07;3.92;;;;;;;;;;5062598;28;20099;-78
2021/06/24 15:18:02;;;;;;;5.65;4.10;;;;;;;;;;5057766;28;20081;-77
2021/06/24 15:20:46;;;;;;;5.57;4.10;;;;;;;;;;5074008;28;20094;-78
2021/06/24 15:23:31;;;;;;;5.88;3.63;;;;;;;;;;5046713;28;20043;-77
2021/06/24 15:26:15;;;;;;;4.70;3.90;;;;;;;;;;5042142;28;20051;-78
2021/06/24 15:28:59;;;;;;;4.68;3.70;;;;;;;;;;5043267;28;20094;-77
2021/06/24 15:31:44;;;;;;;5.70;3.97;;;;;;;;;;5062520;28;20079;-77
2021/06/24 15:34:28;;;;;;;4.40;4.00;;;;;;;;;;5072713;28;20066;-77
2021/06/24 15:37:13;;;;;;;7.28;3.63;;;;;;;;;;5066057;28;20035;-79
2021/06/24 15:39:57;;;;;;;4.55;3.47;;;;;;;;;;5047346;28;20051;-80
2021/06/24 15:42:46;;;;;;;5.47;3.75;;;;;;;;;;5047807;28;20047;-78
2021/06/24 15:45:31;;;;;;;4.60;3.10;;;;;;;;;;5077162;28;20791;-79
2021/06/24 15:48:15;;;;;;;4.22;3.38;;;;;;;;;;5069355;28;20137;-79
2021/06/24 15:51:00;;;;;;;3.47;2.90;;;;;;;;;;5077076;28;20047;-79
2021/06/24 15:53:44;;;;;;;3.97;3.30;;;;;;;;;;5064009;28;20558;-79
2021/06/24 15:56:29;;;;;;;4.07;3.33;;;;;;;;;;5063343;28;20465;-78
2021/06/24 15:59:13;;;;;;;4.03;3.00;;;;;;;;;;5070183;28;20047;-79
2021/06/24 16:01:58;;;;;;;4.50;3.10;;;;;;;;;;5064134;28;20165;-79
2021/06/24 16:04:43;;;;;;;3.80;3.25;;;;;;;;;;5077054;28;20514;-79
2021/06/24 16:07:27;;;;;;;4.97;3.30;;;;;;;;;;5064400;28;20121;-78
2021/06/24 16:10:12;;;;;;;3.33;2.83;;;;;;;;;;5074389;28;20176;-79
2021/06/24 16:12:57;;;;;;;3.58;3.10;;;;;;;;;;5083524;28;20039;-79
2021/06/24 16:15:42;;;;;;;3.90;2.92;;;;;;;;;;5080321;28;20078;-79
2021/06/24 16:18:26;;;;;;;4.35;3.30;;;;;;;;;;5083520;28;20042;-79
2021/06/24 16:21:10;;;;;;;4.53;3.50;;;;;;;;;;5062580;28;20051;-79
2021/06/24 16:23:55;;;;;;;4.45;2.97;;;;;;;;;;5062843;28;20088;-79
2021/06/24 16:26:40;;;;;;;4.15;3.20;;;;;;;;;;5081434;28;20570;-79
2021/06/24 16:29:26;;;;;;;3.45;3.00;;;;;;;;;;5076925;28;20074;-79
2021/06/24 16:32:11;;;;;;;3.30;2.90;;;;;;;;;;5052194;28;20039;-79
2021/06/24 16:34:55;;;;;;;3.50;2.78;;;;;;;;;;5063429;28;20078;-79
2021/06/24 16:37:40;;;;;;;3.63;2.72;;;;;;;;;;5069567;28;20418;-79
2021/06/24 16:40:25;;;;;;;3.50;3.10;;;;;;;;;;5071998;28;20563;-78
2021/06/24 16:43:09;;;;;;;3.63;2.95;;;;;;;;;;5048604;28;20051;-78